Overview Statistics Trail Chart Weather Telemetry Raw packets
 

This is the latest recevied weather packets stored in our database for station/object K5MGY. If no packets are shown the sender has not sent any weather packets the latest 10 day(s).

<< 7 8 9 10 11 12 13 >>
Time Temp. Humidity Pressure Rain* Wind** Luminosity Snow
1788560818 37.22° C 39% 1034.7 hPa 0 mm - 57 W/m² -
1788560514 37.22° C 38% 1034.9 hPa 0 mm - 60 W/m² -
1788560213 37.22° C 38% 1034.9 hPa 0 mm - 55 W/m² -
1788559909 37.22° C 38% 1034.9 hPa 0 mm - 51 W/m² -
1788559603 37.22° C 38% 1035.1 hPa 0 mm - 61 W/m² -
1788559299 37.22° C 38% 1035 hPa 0 mm - 59 W/m² -
1788558993 37.22° C 37% 1035 hPa 0 mm - 58 W/m² -
1788558689 37.22° C 37% 1035 hPa 0 mm - 56 W/m² -
1788558389 37.22° C 37% 1035.1 hPa 0 mm - 48 W/m² -
1788558085 37.78° C 37% 1035.2 hPa 0 mm - 114 W/m² -
1788557782 37.78° C 36% 1035.1 hPa 0 mm - 86 W/m² -
1788557480 37.78° C 37% 1034.9 hPa 0 mm - 247 W/m² -
1788557179 37.78° C 37% 1035.3 hPa 0 mm - 422 W/m² -
1788556874 38.33° C 37% 1035.2 hPa 0 mm - 261 W/m² -
1788556574 38.33° C 37% 1035.3 hPa 0 mm - 298 W/m² -
1788556270 38.33° C 37% 1035.4 hPa 0 mm - 320 W/m² -
1788555969 38.33° C 36% 1035.5 hPa 0 mm - 131 W/m² -
1788555665 38.33° C 37% 1035.5 hPa 0 mm - 122 W/m² -
1788555360 38.89° C 37% 1035.6 hPa 0 mm - 362 W/m² -
1788555057 38.33° C 37% 1035.7 hPa 0 mm - 296 W/m² -
1788554752 38.33° C 37% 1035.6 hPa 0 mm - 311 W/m² -
1788554448 38.33° C 36% 1036.1 hPa 0 mm - 123 W/m² -
1788554144 37.78° C 37% 1035.9 hPa 0 mm - 145 W/m² -
1788553840 38.89° C 36% 1036 hPa 0 mm - 580 W/m² -
1788553536 38.89° C 37% 1036.1 hPa 0 mm - 557 W/m² -

* Rain latest hour (hover to see other rain measurements)
** Current wind speed in m/s (hover to see current wind gust speed)